createdAt,value
2023-01-11T00:00:10.514Z,100699.00
2023-01-11T00:03:12.974Z,100698.41
2023-01-11T00:06:15.127Z,100690.88
2023-01-11T00:09:17.487Z,100691.25
2023-01-11T00:12:21.894Z,100696.63
2023-01-11T00:15:23.739Z,100696.06
2023-01-11T00:18:25.739Z,100698.47
2023-01-11T00:21:27.897Z,100697.41
2023-01-11T00:24:30.229Z,100700.31
2023-01-11T00:27:32.461Z,100697.72
2023-01-11T00:30:35.946Z,100697.72
2023-01-11T00:33:37.899Z,100696.53
2023-01-11T00:36:39.791Z,100692.78
2023-01-11T00:39:44.901Z,100700.13
2023-01-11T00:43:05.650Z,100706.59
2023-01-11T00:46:27.900Z,100709.34
2023-01-11T00:49:32.564Z,100711.38
2023-01-11T00:52:34.353Z,100717.63
2023-01-11T00:55:36.887Z,100707.47
2023-01-11T00:58:39.086Z,100722.59
2023-01-11T01:01:41.835Z,100719.75
2023-01-11T01:04:44.063Z,100724.94
2023-01-11T01:07:47.234Z,100724.94
2023-01-11T01:10:52.615Z,100742.16
2023-01-11T01:14:13.170Z,100738.06
2023-01-11T01:17:15.108Z,100741.44
2023-01-11T01:20:17.468Z,100739.81
2023-01-11T01:23:19.514Z,100735.47
2023-01-11T01:26:23.510Z,100745.97
2023-01-11T01:29:26.272Z,100747.13
2023-01-11T01:32:29.762Z,100748.78
2023-01-11T01:35:35.215Z,100750.19
2023-01-11T01:38:37.647Z,100742.06
2023-01-11T01:41:39.821Z,100753.00
2023-01-11T01:45:09.996Z,100749.81
2023-01-11T01:48:18.395Z,100750.28
2023-01-11T01:51:46.611Z,100748.75
2023-01-11T01:54:49.812Z,100748.91
2023-01-11T01:57:53.888Z,100757.00
2023-01-11T02:00:56.288Z,100751.84
2023-01-11T02:03:59.812Z,100761.66
2023-01-11T02:07:17.712Z,100767.31
2023-01-11T02:10:23.420Z,100778.31
2023-01-11T02:13:30.257Z,100781.56
2023-01-11T02:16:34.152Z,100778.38
2023-01-11T02:19:36.027Z,100774.38
2023-01-11T02:23:25.869Z,100766.72
2023-01-11T02:26:47.341Z,100768.63
2023-01-11T02:29:58.822Z,100771.91
2023-01-11T02:33:22.186Z,100770.00
2023-01-11T02:36:25.446Z,100774.28
2023-01-11T02:39:39.462Z,100784.66
2023-01-11T02:43:21.307Z,100774.50
2023-01-11T02:46:28.648Z,100782.97
2023-01-11T02:50:04.008Z,100777.66
2023-01-11T02:53:24.777Z,100779.34
2023-01-11T02:56:31.146Z,100784.88
2023-01-11T02:59:36.357Z,100792.91
2023-01-11T03:02:38.569Z,100791.94
2023-01-11T03:05:46.280Z,100803.16
2023-01-11T03:09:08.021Z,100805.72
2023-01-11T03:12:51.164Z,100811.78
2023-01-11T03:16:25.208Z,100812.94
2023-01-11T03:19:54.853Z,100805.19
2023-01-11T03:23:08.072Z,100809.88
2023-01-11T03:26:12.891Z,100821.31
2023-01-11T03:29:35.860Z,100832.97
2023-01-11T03:33:26.569Z,100828.00
2023-01-11T03:36:39.374Z,100833.41
2023-01-11T03:39:47.452Z,100822.81
2023-01-11T03:43:10.995Z,100830.63
2023-01-11T03:46:21.130Z,100823.78
2023-01-11T03:49:37.111Z,100821.69
2023-01-11T03:52:42.906Z,100815.88
2023-01-11T03:55:52.492Z,100795.16
2023-01-11T03:58:55.612Z,100799.41
2023-01-11T04:01:58.523Z,100794.22
2023-01-11T04:05:00.792Z,100794.44
2023-01-11T04:08:04.014Z,100801.06
2023-01-11T04:11:06.509Z,100803.31
2023-01-11T04:14:08.938Z,100800.94
2023-01-11T04:17:11.027Z,100804.09
2023-01-11T04:20:13.272Z,100800.69
2023-01-11T04:23:15.588Z,100810.22
2023-01-11T04:26:17.860Z,100814.13
2023-01-11T04:29:19.922Z,100804.47
2023-01-11T04:32:22.430Z,100804.47
2023-01-11T04:35:26.175Z,100781.97
2023-01-11T04:38:28.642Z,100804.25
2023-01-11T04:41:51.035Z,100832.03
2023-01-11T04:44:54.430Z,100833.31
2023-01-11T04:47:57.586Z,100853.22
2023-01-11T04:50:59.466Z,100865.47
2023-01-11T04:54:01.469Z,100833.91
2023-01-11T04:57:03.873Z,100826.16
2023-01-11T05:00:11.060Z,100835.19
2023-01-11T05:03:13.098Z,100839.91
2023-01-11T05:06:16.108Z,100857.78
2023-01-11T05:09:19.149Z,100838.81
2023-01-11T05:12:22.450Z,100833.41
2023-01-11T05:15:25.436Z,100828.50
2023-01-11T05:18:29.302Z,100832.97
2023-01-11T05:21:36.977Z,100846.38
2023-01-11T05:24:38.992Z,100846.97
2023-01-11T05:27:41.251Z,100847.09
2023-01-11T05:30:43.216Z,100844.13
2023-01-11T05:33:45.275Z,100848.22
2023-01-11T05:36:47.647Z,100830.56
2023-01-11T05:39:50.879Z,100840.84
2023-01-11T05:42:53.063Z,100835.53
2023-01-11T05:45:57.800Z,100831.41
2023-01-11T05:49:02.040Z,100840.25
2023-01-11T05:52:04.388Z,100836.00
2023-01-11T05:55:07.475Z,100833.75
2023-01-11T05:58:09.550Z,100822.31
2023-01-11T06:01:12.430Z,100826.97
2023-01-11T06:04:14.747Z,100815.66
2023-01-11T06:07:17.794Z,100812.78
2023-01-11T06:10:20.027Z,100823.22
2023-01-11T06:13:26.504Z,100827.94
2023-01-11T06:16:28.830Z,100825.56
2023-01-11T06:19:31.458Z,100821.34
2023-01-11T06:22:33.511Z,100826.84
2023-01-11T06:25:37.645Z,100826.00
2023-01-11T06:28:40.817Z,100840.53
2023-01-11T06:31:43.985Z,100834.53
2023-01-11T06:34:47.137Z,100829.72
2023-01-11T06:37:50.176Z,100832.75
2023-01-11T06:40:58.307Z,100832.16
2023-01-11T06:44:02.636Z,100841.34
2023-01-11T06:47:06.162Z,100851.47
2023-01-11T06:50:08.783Z,100859.03
2023-01-11T06:53:10.855Z,100855.69
2023-01-11T06:56:19.174Z,100859.59
2023-01-11T07:02:45.550Z,100874.06
2023-01-11T07:05:53.758Z,100875.50
2023-01-11T07:09:06.232Z,100873.50
2023-01-11T07:12:09.808Z,100903.00
2023-01-11T07:15:26.326Z,100912.69
2023-01-11T07:18:33.882Z,100908.00
2023-01-11T07:21:43.190Z,100894.69
2023-01-11T07:25:29.051Z,100924.91
2023-01-11T07:32:05.774Z,100917.53
2023-01-11T07:35:11.457Z,100904.16
2023-01-11T07:38:19.513Z,100930.06
2023-01-11T07:41:42.754Z,100912.25
2023-01-11T07:44:48.513Z,100925.50
2023-01-11T07:47:54.426Z,100911.06
2023-01-11T07:54:41.106Z,100910.63
2023-01-11T08:01:15.643Z,100908.34
2023-01-11T08:04:56.718Z,100903.28
2023-01-11T08:08:39.172Z,100889.28
2023-01-11T08:12:14.394Z,100915.47
2023-01-11T08:15:22.868Z,100924.47
2023-01-11T08:22:36.970Z,100939.50
2023-01-11T08:25:39.355Z,100942.16
2023-01-11T08:28:53.822Z,100925.41
2023-01-11T08:32:20.045Z,100923.03
2023-01-11T08:35:26.985Z,100950.75
2023-01-11T08:38:49.841Z,100958.91
2023-01-11T08:45:27.102Z,100938.88
2023-01-11T08:49:14.513Z,100905.50
2023-01-11T08:57:07.354Z,100948.53
2023-01-11T09:00:15.830Z,100930.34
2023-01-11T09:03:37.427Z,100927.72
2023-01-11T09:07:16.065Z,100949.94
2023-01-11T09:10:34.066Z,100944.97
2023-01-11T09:13:48.063Z,100945.47
2023-01-11T09:16:52.318Z,100932.50
2023-01-11T09:19:57.114Z,100943.69
2023-01-11T09:23:02.296Z,100954.88
2023-01-11T09:26:04.935Z,100930.50
2023-01-11T09:29:16.139Z,100949.22
2023-01-11T09:32:21.950Z,100929.41
2023-01-11T09:35:24.085Z,100946.59
2023-01-11T09:38:31.008Z,100942.53
2023-01-11T09:42:07.588Z,100947.69
2023-01-11T09:45:19.477Z,100948.34
2023-01-11T09:48:36.664Z,100937.13
2023-01-11T09:51:39.914Z,100921.94
2023-01-11T09:54:45.139Z,100926.56
2023-01-11T09:58:27.960Z,100930.97
2023-01-11T10:01:45.825Z,100918.59
2023-01-11T10:05:33.428Z,100910.91
2023-01-11T10:18:39.748Z,100898.50
2023-01-11T10:20:47.148Z,100904.97
2023-01-11T10:24:39.462Z,100884.00
2023-01-11T10:28:00.662Z,100893.22
2023-01-11T10:31:45.116Z,100903.69
2023-01-11T10:35:01.159Z,100873.38
2023-01-11T10:38:35.663Z,100883.97
2023-01-11T10:42:51.872Z,100900.31
2023-01-11T10:51:42.583Z,100906.66
2023-01-11T10:54:53.889Z,100891.56
2023-01-11T11:24:55.187Z,100826.41
2023-01-11T11:29:24.876Z,100826.09
2023-01-11T11:33:02.640Z,100860.44
2023-01-11T11:36:17.242Z,100822.31
2023-01-11T11:40:00.077Z,100856.28
2023-01-11T11:43:20.743Z,100864.25
2023-01-11T11:46:28.476Z,100861.38
2023-01-11T11:49:33.909Z,100827.88
2023-01-11T11:52:50.250Z,100856.00
2023-01-11T11:56:17.349Z,100842.72
2023-01-11T11:59:25.310Z,100855.56
2023-01-11T12:02:45.460Z,100863.91
2023-01-11T12:05:58.778Z,100853.22
2023-01-11T12:09:05.827Z,100847.88
2023-01-11T12:12:29.811Z,100850.59
2023-01-11T12:19:52.394Z,100861.50
2023-01-11T12:23:48.382Z,100866.22
2023-01-11T12:27:38.442Z,100870.88
2023-01-11T12:31:08.582Z,100872.91
2023-01-11T12:34:37.642Z,100850.31
2023-01-11T12:37:55.087Z,100876.59
2023-01-11T12:41:07.909Z,100871.25
2023-01-11T12:44:29.472Z,100875.72
2023-01-11T12:47:39.690Z,100871.31
2023-01-11T12:51:14.416Z,100872.84
2023-01-11T12:54:45.473Z,100868.69
2023-01-11T12:58:06.495Z,100863.72
2023-01-11T13:01:19.134Z,100865.84
2023-01-11T13:04:45.169Z,100852.16
2023-01-11T13:07:59.901Z,100849.19
2023-01-11T13:11:37.477Z,100839.97
2023-01-11T13:19:33.250Z,100840.25
2023-01-11T13:30:51.166Z,100833.88
2023-01-11T13:34:12.662Z,100843.91
2023-01-11T13:37:43.555Z,100873.75
2023-01-11T13:41:01.183Z,100875.75
2023-01-11T13:44:22.892Z,100878.06
2023-01-11T13:47:38.342Z,100877.66
2023-01-11T13:51:25.205Z,100870.81
2023-01-11T13:54:58.705Z,100866.53
2023-01-11T13:58:17.823Z,100875.34
2023-01-11T14:01:27.790Z,100859.44
2023-01-11T14:04:44.413Z,100879.13
2023-01-11T14:08:24.049Z,100874.97
2023-01-11T14:12:06.319Z,100872.34
2023-01-11T14:15:08.575Z,100874.44
2023-01-11T14:18:42.839Z,100850.81
2023-01-11T14:22:21.020Z,100865.34
2023-01-11T14:25:29.453Z,100855.34
2023-01-11T14:28:44.391Z,100856.34
2023-01-11T14:32:07.602Z,100865.28
2023-01-11T14:35:37.985Z,100870.94
2023-01-11T14:38:43.435Z,100865.16
2023-01-11T14:42:31.268Z,100861.50
2023-01-11T14:45:44.436Z,100867.41
2023-01-11T14:49:24.095Z,100861.63
2023-01-11T14:52:39.701Z,100850.78
2023-01-11T14:55:47.335Z,100848.03
2023-01-11T14:59:07.309Z,100849.28
2023-01-11T15:02:10.369Z,100849.69
2023-01-11T15:05:33.094Z,100863.31
2023-01-11T15:08:43.339Z,100859.72
2023-01-11T15:11:45.329Z,100860.00
2023-01-11T15:15:01.978Z,100857.41
2023-01-11T15:18:19.418Z,100845.06
2023-01-11T15:21:27.209Z,100861.38
2023-01-11T15:24:38.078Z,100857.84
2023-01-11T15:27:43.027Z,100866.34
2023-01-11T15:30:52.859Z,100869.47
2023-01-11T15:33:55.832Z,100872.78
2023-01-11T15:37:01.619Z,100868.53
2023-01-11T15:40:10.935Z,100878.53
2023-01-11T15:43:35.019Z,100870.19
2023-01-11T15:47:22.212Z,100867.28
2023-01-11T15:51:02.592Z,100869.31
2023-01-11T15:54:19.705Z,100868.34
2023-01-11T15:57:27.825Z,100867.78
2023-01-11T16:00:55.527Z,100879.59
2023-01-11T16:04:19.857Z,100872.44
2023-01-11T16:07:44.550Z,100871.47
2023-01-11T16:11:17.030Z,100871.47
2023-01-11T16:14:40.979Z,100870.91
2023-01-11T16:17:46.681Z,100865.97
2023-01-11T16:21:23.831Z,100862.69
2023-01-11T16:24:29.614Z,100870.19
2023-01-11T16:27:34.487Z,100848.75
2023-01-11T16:30:37.049Z,100855.50
2023-01-11T16:33:39.102Z,100858.50
2023-01-11T16:36:41.867Z,100865.63
2023-01-11T16:39:44.422Z,100865.03
2023-01-11T16:43:16.155Z,100864.59
2023-01-11T16:46:47.284Z,100862.50
2023-01-11T16:50:11.770Z,100867.50
2023-01-11T16:53:16.036Z,100860.53
2023-01-11T16:56:22.357Z,100868.09
2023-01-11T16:59:30.991Z,100869.84
2023-01-11T17:02:38.982Z,100867.09
2023-01-11T17:05:41.127Z,100865.69
2023-01-11T17:08:51.026Z,100875.09
2023-01-11T17:11:53.671Z,100868.59
2023-01-11T17:15:32.979Z,100872.66
2023-01-11T17:18:38.927Z,100874.03
2023-01-11T17:21:49.232Z,100877.34
2023-01-11T17:25:04.433Z,100874.84
2023-01-11T17:28:14.546Z,100869.84
2023-01-11T17:31:33.675Z,100861.34
2023-01-11T17:34:40.379Z,100868.66
2023-01-11T17:37:45.463Z,100873.56
2023-01-11T17:40:48.212Z,100869.84
2023-01-11T17:44:09.007Z,100875.81
2023-01-11T17:47:13.103Z,100881.53
2023-01-11T17:50:27.006Z,100881.78
2023-01-11T17:53:36.898Z,100887.09
2023-01-11T17:56:41.953Z,100884.44
2023-01-11T17:59:45.552Z,100887.63
2023-01-11T18:02:49.139Z,100886.44
2023-01-11T18:05:51.280Z,100888.81
2023-01-11T18:08:58.543Z,100889.44
2023-01-11T18:12:14.323Z,100901.31
2023-01-11T18:15:38.381Z,100904.63
2023-01-11T18:18:42.089Z,100903.78
2023-01-11T18:21:53.356Z,100909.47
2023-01-11T18:24:58.725Z,100913.59
2023-01-11T18:28:19.455Z,100912.66
2023-01-11T18:31:22.175Z,100911.69
2023-01-11T18:34:29.294Z,100899.16
2023-01-11T18:37:31.506Z,100909.22
2023-01-11T18:40:35.828Z,100910.75
2023-01-11T18:43:38.157Z,100913.97
2023-01-11T18:46:40.223Z,100917.84
2023-01-11T18:49:43.006Z,100930.00
2023-01-11T18:52:45.502Z,100921.19
2023-01-11T18:55:47.662Z,100930.16
2023-01-11T18:58:49.855Z,100928.81
2023-01-11T19:02:01.679Z,100923.19
2023-01-11T19:05:20.149Z,100920.72
2023-01-11T19:08:22.565Z,100925.19
2023-01-11T19:11:25.718Z,100933.69
2023-01-11T19:14:28.141Z,100931.81
2023-01-11T19:17:31.876Z,100933.09
2023-01-11T19:20:34.235Z,100930.28
2023-01-11T19:23:37.157Z,100928.63
2023-01-11T19:26:44.853Z,100935.09
2023-01-11T19:29:47.316Z,100934.28
2023-01-11T19:32:53.582Z,100950.81
2023-01-11T19:35:55.526Z,100957.88
2023-01-11T19:38:58.717Z,100953.97
2023-01-11T19:42:02.565Z,100960.22
2023-01-11T19:45:05.849Z,100964.47
2023-01-11T19:48:08.906Z,100965.03
2023-01-11T19:51:12.920Z,100966.56
2023-01-11T19:54:16.224Z,100971.78
2023-01-11T19:57:23.125Z,100958.91
2023-01-11T20:00:25.255Z,100969.53
2023-01-11T20:03:29.114Z,100976.81
2023-01-11T20:06:32.584Z,100976.22
2023-01-11T20:09:37.637Z,100971.59
2023-01-11T20:12:39.688Z,100968.53
2023-01-11T20:15:42.690Z,100956.28
2023-01-11T20:18:51.132Z,100962.66
2023-01-11T20:21:53.226Z,100961.56
2023-01-11T20:24:56.217Z,100962.31
2023-01-11T20:27:58.753Z,100957.50
2023-01-11T20:31:02.222Z,100965.75
2023-01-11T20:34:10.710Z,100968.28
2023-01-11T20:37:15.997Z,100971.50
2023-01-11T20:40:18.548Z,100969.94
2023-01-11T20:43:20.724Z,100977.63
2023-01-11T20:46:22.779Z,100983.91
2023-01-11T20:49:31.546Z,100976.53
2023-01-11T20:52:34.973Z,100969.53
2023-01-11T20:55:37.180Z,100972.91
2023-01-11T20:58:39.173Z,100990.22
2023-01-11T21:01:41.555Z,100984.09
2023-01-11T21:04:43.787Z,100984.13
2023-01-11T21:07:46.965Z,100993.63
2023-01-11T21:10:49.322Z,101001.97
2023-01-11T21:13:55.322Z,101000.66
2023-01-11T21:16:58.858Z,101006.06
2023-01-11T21:20:00.911Z,101006.34
2023-01-11T21:23:03.108Z,101000.56
2023-01-11T21:26:13.331Z,101003.38
2023-01-11T21:29:15.883Z,100999.06
2023-01-11T21:32:20.671Z,101011.53
2023-01-11T21:35:23.040Z,101013.19
2023-01-11T21:38:25.390Z,101012.34
2023-01-11T21:41:48.937Z,101008.41
2023-01-11T21:44:51.291Z,101009.78
2023-01-11T21:47:53.441Z,101027.47
2023-01-11T21:50:56.704Z,101020.94
2023-01-11T21:53:59.742Z,101019.22
2023-01-11T21:57:02.465Z,101020.44
2023-01-11T22:00:05.941Z,101027.28
2023-01-11T22:03:08.307Z,101031.19
2023-01-11T22:06:10.488Z,101014.44
2023-01-11T22:09:13.146Z,101022.88
2023-01-11T22:12:15.382Z,101016.16
2023-01-11T22:15:18.354Z,101028.28
2023-01-11T22:18:22.549Z,101024.69
2023-01-11T22:21:26.402Z,101025.28
2023-01-11T22:24:28.609Z,101021.69
2023-01-11T22:27:32.493Z,101024.38
2023-01-11T22:30:35.059Z,101022.50
2023-01-11T22:33:37.065Z,101014.44
2023-01-11T22:36:39.095Z,101037.03
2023-01-11T22:39:42.795Z,101026.03
2023-01-11T22:42:45.007Z,101036.19
2023-01-11T22:45:59.492Z,101042.50
2023-01-11T22:49:01.861Z,101037.25
2023-01-11T22:52:03.998Z,101037.66
2023-01-11T22:55:07.244Z,101038.44
2023-01-11T22:58:11.142Z,101041.97
2023-01-11T23:01:19.311Z,101037.88
2023-01-11T23:04:21.693Z,101045.63
2023-01-11T23:07:23.914Z,101031.66
2023-01-11T23:10:25.820Z,101040.56
2023-01-11T23:13:46.978Z,101040.97
2023-01-11T23:16:49.996Z,101033.00
2023-01-11T23:19:55.369Z,101037.25
2023-01-11T23:22:57.513Z,101033.53
2023-01-11T23:25:59.917Z,101025.56
2023-01-11T23:29:02.273Z,101028.25
2023-01-11T23:32:04.726Z,101028.53
2023-01-11T23:35:09.150Z,101030.31
2023-01-11T23:38:14.027Z,101030.31
2023-01-11T23:41:37.765Z,101031.44
2023-01-11T23:44:40.191Z,101031.13
2023-01-11T23:47:43.273Z,101032.22
2023-01-11T23:50:46.183Z,101028.69
2023-01-11T23:53:50.568Z,101031.16
2023-01-11T23:56:53.864Z,101045.50
2023-01-11T23:59:56.633Z,101043.06
